Emerson, Canada
Current Conditions -  °F | °C
As of 1:53 PM on Thursday 30 Oct 2014 (Local Time) from KHCO Reporting Station
NA  
Wind Chill: 25°   Ceiling: NA
Heat Index: 36°   Visibility: 10mi
Dew Point: 25°   Wind: 20mph
Humidity: 65%   Direction: 350°N
Pressure: 30.35"   Gusts: 26mph
Location:  49.01°N, 97.2°W
Report Text: KHCO 301853Z AUTO 35017G23KT 10SM 02/M04 A3035 RMK AO2
Loading
Personal Weather Stations






























Interactive Weather Map
Tropical Storm Tracking
New forecast layout! Learn more

10-Day Weather Forecast

Advertisements
Track Severe Weather on mobile